CZFM/ZFM METAR and TAF weather

Enter ICAO airport designator
Station Type Date Time Source
CZFM METAR 2020/02/21 14:00 UTC NOAA

CZFM 211400Z 33008KT 290V360 2SM -SN BR OVC005 M17/M19 A2925 RMK ST8 STR 51.0/SNWCVR/MUCH LOOSE SLP912


Station Type Date Time Source
CZFM Decoded METAR 2020/02/21 14:00 UTC NOAA

Fort Mcpherson Airport, Canada (CZFM) 67-24N 134-51W
Feb 21, 2020 - 09:00 AM EST / 2020.02.21 1400 UTC
Wind: from the NNW (330 degrees) at 9 MPH (8 KT) (direction variable):0
Visibility: 2 mile(s):0
Sky conditions: overcast
Weather: light snow; mist
Temperature: 1 F (-17 C)
Windchill: -13 F (-25 C):2
Dew Point: -2 F (-19 C)
Relative Humidity: 84%
Pressure (altimeter): 29.25 in. Hg (990 hPa)
ob: CZFM 211400Z 33008KT 290V360 2SM -SN BR OVC005 M17/M19 A2925 RMK ST8 STR 51.0/SNWCVR/MUCH LOOSE SLP912
cycle: 14

Station Type Date Time Source
CZFM TAF 2020/02/20 19:00 UTC NOAA

TAF CZFM 201838Z 2019/2024 VRB03KT P6SM SCT015 BKN040
TEMPO 2019/2024 5SM -SN BKN015
RMK NXT FCST WILL BE ISSUED AT 211545Z

Example: see airport list